Time;durP1;ratioP1;P1;durP2;ratioP2;P2;SDS_P1;SDS_P2;PMS_P1;PMS_P2;Temp;Humidity;BMP_temperature;BMP_pressure;BME280_temperature;BME280_humidity;BME280_pressure;Samples;Min_cycle;Max_cycle;Signal;HPM_P1;HPM_P2
2023/07/12 00:02:43;;;;;;;5.80;4.30;;;;;;;17.32;61.36;99313.72;437719;1253;138913;-69
2023/07/12 00:12:50;;;;;;;4.20;3.60;;;;;;;17.19;61.68;99300.98;437353;1248;139291;-69
2023/07/12 00:22:56;;;;;;;7.10;3.80;;;;;;;17.05;62.16;99281.60;437729;1252;138972;-68
2023/07/12 00:33:03;;;;;;;7.00;4.40;;;;;;;16.93;62.72;99285.76;437458;1248;140019;-69
2023/07/12 00:43:17;;;;;;;4.50;4.10;;;;;;;16.77;63.39;99286.35;437225;1253;139273;-67
2023/07/12 00:53:25;;;;;;;4.90;4.50;;;;;;;16.68;63.78;99259.23;437412;1248;139430;-69
2023/07/12 01:03:36;;;;;;;4.30;4.00;;;;;;;16.61;64.06;99242.79;437823;1252;139392;-69
2023/07/12 01:13:45;;;;;;;5.20;4.40;;;;;;;16.62;64.29;99223.60;437578;1251;139062;-68
2023/07/12 01:23:51;;;;;;;4.40;4.00;;;;;;;16.59;64.53;99230.42;438007;1248;139531;-67
2023/07/12 01:33:57;;;;;;;4.10;3.60;;;;;;;16.54;64.77;99230.21;437388;1248;140027;-66
2023/07/12 01:44:03;;;;;;;5.20;4.70;;;;;;;16.51;65.11;99238.59;437033;1252;139814;-68
2023/07/12 01:54:09;;;;;;;7.80;5.40;;;;;;;16.39;65.28;99228.71;439045;1252;139426;-69
2023/07/12 02:04:15;;;;;;;6.60;4.20;;;;;;;16.35;65.57;99210.61;437441;1253;139075;-69
2023/07/12 02:14:21;;;;;;;6.00;5.40;;;;;;;16.20;65.81;99203.83;437474;1253;138644;-68
2023/07/12 02:24:26;;;;;;;6.60;4.40;;;;;;;16.15;66.36;99203.43;437298;1251;139384;-68
2023/07/12 02:34:32;;;;;;;7.20;6.10;;;;;;;16.11;66.61;99187.58;437392;1253;138948;-69
2023/07/12 02:44:40;;;;;;;7.50;6.40;;;;;;;16.06;66.86;99177.08;437155;1248;138778;-70
2023/07/12 02:54:46;;;;;;;8.10;5.60;;;;;;;16.14;67.03;99166.27;437769;1251;139587;-69
2023/07/12 03:04:52;;;;;;;6.70;5.40;;;;;;;16.31;66.85;99161.31;438468;1252;140302;-68
2023/07/12 03:14:59;;;;;;;6.60;5.70;;;;;;;17.08;66.66;99156.23;437869;1252;143361;-69
2023/07/12 03:25:05;;;;;;;6.20;5.60;;;;;;;19.43;64.21;99146.27;437454;1248;138784;-69
2023/07/12 03:35:12;;;;;;;7.50;5.60;;;;;;;21.52;58.40;99136.60;437970;1252;139973;-68
2023/07/12 03:45:18;;;;;;;9.50;5.70;;;;;;;20.52;57.20;99121.42;438479;1251;139157;-69
2023/07/12 03:55:24;;;;;;;8.30;7.00;;;;;;;20.19;57.05;99111.14;437431;1252;138043;-70
2023/07/12 04:05:29;;;;;;;7.90;6.10;;;;;;;20.49;56.49;99106.16;437247;1248;139538;-72
2023/07/12 04:15:38;;;;;;;5.20;4.80;;;;;;;24.29;52.85;99105.38;437121;1253;138970;-69
2023/07/12 04:25:44;;;;;;;6.00;5.50;;;;;;;26.70;47.33;99099.80;437293;1253;139934;-69
2023/07/12 04:35:49;;;;;;;6.30;5.70;;;;;;;30.04;42.85;99086.92;437020;1253;138410;-69
2023/07/12 04:45:55;;;;;;;6.60;5.30;;;;;;;34.53;37.12;99076.57;437393;1253;138238;-69
2023/07/12 04:56:02;;;;;;;5.50;4.40;;;;;;;38.19;31.92;99054.70;437502;1252;137911;-69
2023/07/12 05:06:08;;;;;;;9.70;4.20;;;;;;;41.21;27.68;99039.44;437168;1252;138519;-69
2023/07/12 05:16:27;;;;;;;6.00;4.40;;;;;;;41.65;24.89;99025.36;437353;1253;137956;-69
2023/07/12 05:26:33;;;;;;;5.60;3.70;;;;;;;40.45;24.34;99025.44;437986;1253;138279;-77
2023/07/12 05:36:39;;;;;;;4.70;4.20;;;;;;;41.83;23.29;99040.46;439800;1254;139035;-78
2023/07/12 05:46:45;;;;;;;4.70;4.30;;;;;;;42.55;22.28;99048.64;439974;1252;138462;-78
2023/07/12 05:56:50;;;;;;;4.30;3.40;;;;;;;40.42;22.46;99044.39;440174;1251;137895;-77
2023/07/12 06:06:56;;;;;;;5.80;3.90;;;;;;;37.99;23.71;99036.17;440235;1253;138528;-77
2023/07/12 06:17:02;;;;;;;4.60;3.80;;;;;;;34.61;25.98;99024.94;440229;1253;138093;-77
2023/07/12 06:27:09;;;;;;;6.70;4.10;;;;;;;32.14;28.48;99021.80;440274;1252;139242;-76
2023/07/12 06:37:14;;;;;;;5.40;3.80;;;;;;;31.65;29.67;99011.82;440448;1252;139979;-75
2023/07/12 06:47:20;;;;;;;7.20;4.00;;;;;;;31.43;30.06;98994.08;439979;1252;138444;-76
2023/07/12 06:57:26;;;;;;;7.10;4.30;;;;;;;31.10;30.50;98974.82;439828;1252;138202;-76
2023/07/12 07:07:32;;;;;;;5.70;3.50;;;;;;;30.20;31.08;98957.32;439090;1251;139181;-67
2023/07/12 07:17:38;;;;;;;3.90;3.60;;;;;;;29.95;31.72;98934.08;437150;1253;140056;-65
2023/07/12 07:27:44;;;;;;;7.20;4.20;;;;;;;29.49;32.40;98913.06;437865;1251;138052;-71
2023/07/12 07:37:51;;;;;;;4.00;3.70;;;;;;;29.38;33.18;98897.54;438610;1253;202664;-69
2023/07/12 07:47:57;;;;;;;6.80;3.10;;;;;;;31.53;32.07;98911.06;438926;1253;138090;-71
2023/07/12 07:58:01;;;;;;;;;;;;;;;33.64;29.42;98908.73;439294;1251;138159;-64
2023/07/12 08:08:08;;;;;;;6.70;3.30;;;;;;;32.07;29.93;98902.54;437644;1253;124392;-66
2023/07/12 08:18:13;;;;;;;5.30;3.90;;;;;;;30.81;31.59;98891.16;438008;1253;137939;-68
2023/07/12 08:28:19;;;;;;;3.60;3.10;;;;;;;31.11;31.62;98881.11;437812;1251;138083;-67
2023/07/12 08:38:31;;;;;;;4.60;3.40;;;;;;;31.51;31.48;98859.95;437301;1253;138492;-67
2023/07/12 08:48:38;;;;;;;4.00;3.10;;;;;;;31.64;31.23;98841.33;437503;1252;139179;-67
2023/07/12 08:58:47;;;;;;;5.80;3.20;;;;;;;31.67;31.16;98832.77;437771;1252;138049;-66
2023/07/12 09:08:54;;;;;;;3.10;2.90;;;;;;;31.53;31.38;98832.36;437633;1254;139972;-67
2023/07/12 09:19:12;;;;;;;4.10;3.50;;;;;;;31.62;31.39;98818.73;437853;1252;138888;-66
2023/07/12 09:29:22;;;;;;;5.30;3.60;;;;;;;32.25;31.26;98817.41;437758;1251;138746;-67
2023/07/12 09:39:28;;;;;;;4.40;4.00;;;;;;;32.96;31.26;98799.25;437800;1251;138732;-67
2023/07/12 09:49:44;;;;;;;6.30;4.20;;;;;;;33.35;30.79;98776.61;437487;1252;138823;-68
2023/07/12 10:00:03;;;;;;;4.70;4.30;;;;;;;33.45;30.55;98758.16;437517;1248;139342;-71
2023/07/12 10:10:20;;;;;;;7.00;4.30;;;;;;;33.91;30.31;98782.71;439918;1251;138298;-64
2023/07/12 10:20:27;;;;;;;6.90;4.70;;;;;;;34.29;30.23;98801.05;437903;1251;140226;-64
2023/07/12 10:30:34;;;;;;;5.70;4.60;;;;;;;34.21;30.05;98812.12;437166;1251;139743;-65
2023/07/12 10:40:45;;;;;;;7.80;5.30;;;;;;;33.27;30.70;98824.80;437483;1248;138079;-67
2023/07/12 10:50:54;;;;;;;8.00;5.00;;;;;;;32.30;31.94;98830.27;437628;1253;138601;-73
2023/07/12 11:01:01;;;;;;;9.10;4.80;;;;;;;31.52;33.27;98823.23;439981;1252;138092;-80
2023/07/12 11:11:38;;;;;;;10.00;6.00;;;;;;;30.54;34.38;98818.15;440525;1251;138969;-72
2023/07/12 11:21:52;;;;;;;9.70;7.10;;;;;;;29.64;35.69;98830.58;440279;1251;138232;-73
2023/07/12 11:32:12;;;;;;;10.50;5.40;;;;;;;28.72;37.41;98838.77;440888;1250;138883;-73
2023/07/12 11:42:27;;;;;;;11.70;6.30;;;;;;;28.34;38.65;98824.59;440023;1251;139172;-68
2023/07/12 11:52:34;;;;;;;8.70;6.00;;;;;;;28.54;39.21;98814.34;437572;1251;139229;-73
2023/07/12 12:02:41;;;;;;;;;;;;;;;28.57;39.46;98807.13;439898;1248;138560;-76
2023/07/12 12:12:49;;;;;;;13.00;6.40;;;;;;;28.61;39.90;98804.98;439616;1251;126095;-66
2023/07/12 12:22:59;;;;;;;6.20;5.50;;;;;;;28.93;40.29;98810.67;438535;1250;138464;-70
2023/07/12 12:33:22;;;;;;;9.60;6.30;;;;;;;29.30;40.18;98804.39;440299;1250;138587;-72
2023/07/12 12:43:28;;;;;;;15.80;7.10;;;;;;;30.10;39.58;98803.55;437524;1249;139873;-63
2023/07/12 12:53:33;;;;;;;10.40;7.00;;;;;;;30.96;38.55;98799.66;437375;1251;141654;-72
2023/07/12 13:03:58;;;;;;;6.60;5.90;;;;;;;31.13;38.07;98809.19;437617;1252;138947;-71
2023/07/12 13:14:08;;;;;;;7.00;6.40;;;;;;;31.23;37.85;98803.29;439723;1252;138780;-74
2023/07/12 13:24:17;;;;;;;11.80;7.00;;;;;;;31.29;37.85;98800.21;439842;1252;138446;-65
2023/07/12 13:34:22;;;;;;;9.80;7.10;;;;;;;31.12;38.33;98804.40;437417;1252;138896;-65
2023/07/12 13:44:48;;;;;;;6.80;6.20;;;;;;;30.53;39.12;98816.88;437302;1251;138364;-65
2023/07/12 13:54:57;;;;;;;5.80;4.80;;;;;;;29.84;40.02;98826.90;437949;1248;138093;-71
2023/07/12 14:05:05;;;;;;;6.90;3.90;;;;;;;29.54;40.21;98845.31;437188;1253;138659;-67
2023/07/12 14:15:19;;;;;;;5.90;3.90;;;;;;;29.87;39.74;98847.89;437468;1248;138847;-69
2023/07/12 14:25:25;;;;;;;4.60;4.20;;;;;;;30.37;38.94;98833.61;437281;1248;138627;-66
2023/07/12 14:35:31;;;;;;;6.50;4.50;;;;;;;30.12;38.93;98819.43;437068;1251;138229;-64
2023/07/12 14:45:37;;;;;;;5.70;4.40;;;;;;;30.15;39.08;98817.84;436946;1248;139438;-64
2023/07/12 14:55:43;;;;;;;9.10;4.60;;;;;;;30.39;38.99;98810.73;437285;1252;140539;-66
2023/07/12 15:05:49;;;;;;;6.80;5.70;;;;;;;30.16;39.16;98814.62;437625;1249;138243;-62
2023/07/12 15:15:56;;;;;;;8.60;4.90;;;;;;;29.69;39.89;98818.37;437026;1251;137910;-65
2023/07/12 15:26:02;;;;;;;7.40;5.10;;;;;;;29.84;40.32;98812.63;437373;1248;140214;-63
2023/07/12 15:36:11;;;;;;;8.90;4.00;;;;;;;29.88;40.50;98810.34;437060;1248;138318;-65
2023/07/12 15:46:20;;;;;;;11.00;5.10;;;;;;;29.30;42.05;98801.02;437716;1250;138663;-65
2023/07/12 15:56:31;;;;;;;8.30;4.70;;;;;;;28.77;43.56;98779.44;436551;1252;139857;-65
2023/07/12 16:06:41;;;;;;;4.50;4.10;;;;;;;28.66;44.36;98771.09;437616;1252;138917;-67
2023/07/12 16:16:47;;;;;;;10.10;5.20;;;;;;;28.60;44.73;98770.96;437254;1253;138214;-67
2023/07/12 16:26:53;;;;;;;6.00;4.90;;;;;;;28.23;45.17;98757.04;437171;1251;138465;-65
2023/07/12 16:36:59;;;;;;;4.80;4.00;;;;;;;27.80;45.72;98763.86;436768;1253;139689;-65
2023/07/12 16:47:05;;;;;;;7.50;4.30;;;;;;;27.57;46.25;98787.09;436895;1248;138585;-65
2023/07/12 16:57:19;;;;;;;5.60;4.00;;;;;;;27.54;46.57;98809.10;437113;1251;139302;-65
2023/07/12 17:07:25;;;;;;;4.50;3.70;;;;;;;27.34;46.97;98816.43;437778;1251;139748;-71
2023/07/12 17:17:31;;;;;;;10.10;1.90;;;;;;;26.62;47.28;98866.10;437265;1252;137975;-65
2023/07/12 17:27:37;;;;;;;2.50;1.30;;;;;;;25.39;48.88;98893.09;437345;1252;138143;-66
2023/07/12 17:37:44;;;;;;;3.50;1.40;;;;;;;24.68;50.57;98891.39;437268;1248;139053;-68
2023/07/12 17:47:50;;;;;;;2.20;1.30;;;;;;;24.08;52.65;98885.70;437109;1252;139214;-66
2023/07/12 17:57:56;;;;;;;2.20;1.80;;;;;;;23.48;54.09;98883.63;437350;1252;138298;-66
2023/07/12 18:08:01;;;;;;;1.90;1.60;;;;;;;22.96;55.07;98902.58;437277;1248;138930;-67
2023/07/12 18:18:07;;;;;;;3.10;1.50;;;;;;;22.64;55.72;98907.80;436802;1248;138665;-66
2023/07/12 18:28:15;;;;;;;3.30;1.90;;;;;;;22.62;56.30;98942.89;437480;1252;138233;-66
2023/07/12 18:38:22;;;;;;;5.00;2.20;;;;;;;22.59;56.78;98964.67;437405;1253;139072;-66
2023/07/12 18:48:28;;;;;;;3.90;2.20;;;;;;;22.40;57.85;98970.33;437352;1248;138643;-66
2023/07/12 18:58:36;;;;;;;4.10;2.70;;;;;;;22.29;58.72;98961.92;437605;1252;138477;-65
2023/07/12 19:08:42;;;;;;;4.60;3.60;;;;;;;22.11;59.66;98946.21;437154;1252;139189;-66
2023/07/12 19:18:48;;;;;;;5.60;2.80;;;;;;;21.90;62.02;98948.40;436978;1248;139986;-65
2023/07/12 19:28:54;;;;;;;3.20;2.90;;;;;;;21.63;63.18;98963.23;438338;1248;138735;-66
2023/07/12 19:39:00;;;;;;;3.90;3.50;;;;;;;21.45;64.48;98991.34;436862;1248;141798;-66
2023/07/12 19:49:07;;;;;;;3.60;2.70;;;;;;;21.26;66.03;98993.58;437338;1253;139220;-63
2023/07/12 19:59:14;;;;;;;3.90;3.50;;;;;;;21.15;67.24;98987.42;437625;1251;139377;-67
2023/07/12 20:09:20;;;;;;;3.80;3.30;;;;;;;20.84;67.65;98976.25;437512;1253;138987;-66
2023/07/12 20:19:26;;;;;;;5.70;3.50;;;;;;;20.55;68.30;98987.60;436852;1252;139829;-67
2023/07/12 20:29:32;;;;;;;6.40;3.30;;;;;;;20.48;69.83;99004.78;437920;1252;139888;-68
2023/07/12 20:39:38;;;;;;;4.40;3.90;;;;;;;20.52;70.51;99005.85;437739;1252;139498;-68
2023/07/12 20:49:47;;;;;;;5.60;3.00;;;;;;;20.47;71.18;99007.36;437411;1248;139698;-65
2023/07/12 20:59:53;;;;;;;6.10;3.10;;;;;;;20.32;71.72;99001.88;437346;1248;139673;-65
2023/07/12 21:09:58;;;;;;;7.30;4.60;;;;;;;20.19;72.70;99001.40;437378;1252;139387;-65
2023/07/12 21:20:06;;;;;;;4.50;3.40;;;;;;;20.06;73.45;99015.19;437573;1251;140755;-66
2023/07/12 21:30:13;;;;;;;5.50;3.90;;;;;;;19.94;74.11;99011.89;436885;1253;139358;-66
2023/07/12 21:40:19;;;;;;;8.10;5.30;;;;;;;19.80;74.68;99015.03;436619;1253;139212;-66
2023/07/12 21:50:25;;;;;;;6.30;4.20;;;;;;;19.65;75.11;99020.39;436852;1253;140552;-66
2023/07/12 22:00:31;;;;;;;6.70;4.70;;;;;;;19.51;75.55;99020.94;436602;1251;139013;-66
2023/07/12 22:10:37;;;;;;;4.70;4.20;;;;;;;19.38;75.99;99040.95;437102;1251;139364;-68
2023/07/12 22:20:43;;;;;;;4.60;4.10;;;;;;;19.19;76.65;99051.12;437666;1253;139697;-67
2023/07/12 22:30:49;;;;;;;4.90;4.40;;;;;;;19.06;77.55;99042.48;436621;1251;140772;-67
2023/07/12 22:40:59;;;;;;;4.30;3.90;;;;;;;18.97;78.11;99052.45;437151;1251;139011;-65
2023/07/12 22:51:05;;;;;;;5.80;4.70;;;;;;;18.89;78.53;99066.96;436708;1251;138881;-67
2023/07/12 23:01:11;;;;;;;7.70;4.80;;;;;;;18.79;78.71;99071.84;436692;1253;140615;-66
2023/07/12 23:11:18;;;;;;;5.40;4.70;;;;;;;18.69;79.28;99073.45;437021;1251;138633;-66
2023/07/12 23:21:24;;;;;;;7.20;4.70;;;;;;;18.61;80.05;99070.35;436807;1253;138862;-66
2023/07/12 23:31:32;;;;;;;5.80;4.90;;;;;;;18.53;81.05;99059.05;436533;1253;139546;-65
2023/07/12 23:41:39;;;;;;;4.10;3.80;;;;;;;18.55;81.81;99045.77;437414;1253;138681;-65
2023/07/12 23:51:44;;;;;;;4.10;3.70;;;;;;;18.52;81.51;99046.56;436766;1251;138979;-65
